Pagina principale
METAR-TAF:

METAR-TAF

Aeroporti :

Kano, Nigeria

latitudine: 12-03N, longitudine: 008-32E, altezza: 476 m

Osservazione

Il bollettino è stato emesso 19 minuti fa, alle 02:00 UTC
Vento 6 kt da nord/nord-est
Temperature 21°C
Umidità 20%
Pressione 1018 hPa
Visibilità 10 km o più
nessuna nube inferiore a 1500 m e nessun cumulonembo

METAR: DNKN 240200Z 03006KT CAVOK 21/M03 Q1018 NOSIG

Ora: 03:19 (02:19 UTC)

Previsione

Il bollettino è stato emesso 3 ore e 19 minuti fa, alle 23:00 UTC
Previsione valida dal 24 alle 00 UTC al 25 alle 06 UTC
Vento 10 kt da est/nord-est
Visibilità 10 km o più
nessuna nube inferiore a 1500 m e nessun cumulonembo
Temporaneamente
dal 24 alle 07 UTC al 24 alle 13 UTC
Visibilità: 1500 m
foschia

TAF: DNKN 232300Z 2400/2506 07010KT CAVOK TEMPO 2407/2413 1500 HZ

Osservazioni e previsioni meteorologiche di più di 4000 aeroporti (messaggi METAR e TAF).

Le stazioni disponibili sono rappresentate dai dischi gialli e rossi sulla carta.

Puntare il mouse per vedere il nome della stazione.

Clicca sopra per visualizzare le osservazioni e previsioni meteorologiche.

Per cambiare la mappa : fare clic sui pulsanti verdi con una croce nera per ingrandire, il pulsante verde con un trattino per diminuire, o sulla freccia verde per le mappe adiacenti.


METAR-TAF: